createdAt,value
2017-10-11T00:00:19.099Z,15.07
2017-10-11T00:02:46.700Z,15.12
2017-10-11T00:05:14.253Z,15.12
2017-10-11T00:07:42.252Z,15.24
2017-10-11T00:10:09.789Z,15.22
2017-10-11T00:12:37.467Z,15.25
2017-10-11T00:15:04.991Z,15.30
2017-10-11T00:17:32.823Z,15.35
2017-10-11T00:20:00.598Z,15.40
2017-10-11T00:22:28.302Z,15.41
2017-10-11T00:24:56.032Z,15.42
2017-10-11T00:27:23.797Z,15.36
2017-10-11T00:29:51.300Z,15.40
2017-10-11T00:32:18.862Z,15.44
2017-10-11T00:34:46.388Z,15.43
2017-10-11T00:37:14.845Z,15.50
2017-10-11T00:39:42.900Z,15.49
2017-10-11T00:42:10.601Z,15.50
2017-10-11T00:44:38.133Z,15.44
2017-10-11T00:47:08.547Z,15.50
2017-10-11T00:49:37.416Z,15.44
2017-10-11T00:52:05.044Z,15.44
2017-10-11T00:54:32.583Z,15.43
2017-10-11T00:57:00.272Z,15.05
2017-10-11T00:59:27.780Z,15.17
2017-10-11T01:01:55.372Z,15.10
2017-10-11T01:04:22.874Z,15.09
2017-10-11T01:06:50.417Z,15.11
2017-10-11T01:09:17.967Z,15.15
2017-10-11T01:11:45.490Z,15.16
2017-10-11T01:14:13.118Z,15.17
2017-10-11T01:16:41.181Z,15.16
2017-10-11T01:19:08.712Z,15.15
2017-10-11T01:21:36.267Z,15.16
2017-10-11T01:24:03.822Z,15.12
2017-10-11T01:26:31.431Z,15.12
2017-10-11T01:28:58.987Z,15.16
2017-10-11T01:31:27.523Z,15.15
2017-10-11T01:33:55.001Z,15.17
2017-10-11T01:36:23.253Z,15.22
2017-10-11T01:38:53.890Z,15.18
2017-10-11T01:41:21.465Z,15.15
2017-10-11T01:43:49.333Z,15.20
2017-10-11T01:46:16.864Z,15.21
2017-10-11T01:48:44.425Z,15.18
2017-10-11T01:51:11.978Z,14.99
2017-10-11T01:53:39.540Z,15.07
2017-10-11T01:56:08.152Z,15.03
2017-10-11T01:58:35.767Z,14.99
2017-10-11T02:01:03.696Z,14.88
2017-10-11T02:03:31.341Z,15.00
2017-10-11T02:05:58.899Z,15.10
2017-10-11T02:08:26.997Z,15.00
2017-10-11T02:10:54.656Z,15.05
2017-10-11T02:13:23.036Z,15.11
2017-10-11T02:15:50.596Z,15.15
2017-10-11T02:18:18.263Z,15.00
2017-10-11T02:20:45.857Z,14.96
2017-10-11T02:23:14.269Z,15.09
2017-10-11T02:25:41.817Z,15.11
2017-10-11T02:28:09.376Z,15.10
2017-10-11T02:30:36.894Z,14.53
2017-10-11T02:33:05.893Z,14.37
2017-10-11T02:35:33.427Z,14.68
2017-10-11T02:38:01.250Z,14.81
2017-10-11T02:40:28.779Z,14.82
2017-10-11T02:42:58.157Z,14.90
2017-10-11T02:45:25.753Z,14.91
2017-10-11T02:47:53.379Z,14.89
2017-10-11T02:50:21.932Z,14.96
2017-10-11T02:52:49.608Z,14.92
2017-10-11T02:55:17.162Z,15.01
2017-10-11T02:57:44.664Z,15.10
2017-10-11T03:00:12.217Z,14.52
2017-10-11T03:02:39.754Z,15.06
2017-10-11T03:05:07.312Z,15.01
2017-10-11T03:07:35.167Z,14.99
2017-10-11T03:10:02.741Z,14.96
2017-10-11T03:12:30.290Z,15.09
2017-10-11T03:14:59.298Z,14.83
2017-10-11T03:17:26.913Z,14.93
2017-10-11T03:19:54.456Z,14.89
2017-10-11T03:22:22.845Z,14.89
2017-10-11T03:24:50.483Z,14.57
2017-10-11T03:27:18.020Z,14.88
2017-10-11T03:29:45.564Z,14.91
2017-10-11T03:32:14.144Z,14.98
2017-10-11T03:34:41.739Z,14.95
2017-10-11T03:37:09.295Z,14.96
2017-10-11T03:39:37.485Z,15.02
2017-10-11T03:42:05.009Z,15.02
2017-10-11T03:44:32.660Z,15.01
2017-10-11T03:47:00.162Z,14.97
2017-10-11T03:49:27.878Z,15.05
2017-10-11T03:51:55.379Z,14.97
2017-10-11T03:54:22.936Z,15.02
2017-10-11T03:56:50.658Z,14.81
2017-10-11T03:59:18.214Z,15.08
2017-10-11T04:01:45.954Z,15.06
2017-10-11T04:04:13.469Z,15.00
2017-10-11T04:06:42.253Z,14.99
2017-10-11T04:09:09.982Z,15.03
2017-10-11T04:11:38.137Z,15.07
2017-10-11T04:14:05.678Z,14.89
2017-10-11T04:16:34.611Z,14.89
2017-10-11T04:19:02.209Z,14.86
2017-10-11T04:21:29.730Z,14.68
2017-10-11T04:23:57.236Z,14.52
2017-10-11T04:26:25.398Z,14.46
2017-10-11T04:28:52.882Z,14.20
2017-10-11T04:31:22.416Z,14.37
2017-10-11T04:33:49.958Z,14.42
2017-10-11T04:36:17.489Z,14.40
2017-10-11T04:38:44.989Z,14.41
2017-10-11T04:41:12.505Z,14.39
2017-10-11T04:43:40.408Z,14.34
2017-10-11T04:46:07.959Z,14.37
2017-10-11T04:48:35.453Z,14.34
2017-10-11T04:51:03.026Z,14.33
2017-10-11T04:53:30.519Z,14.32
2017-10-11T04:55:58.028Z,14.33
2017-10-11T04:58:25.514Z,14.30
2017-10-11T05:00:53.078Z,14.26
2017-10-11T05:03:20.579Z,14.23
2017-10-11T05:05:48.159Z,14.19
2017-10-11T05:08:15.680Z,14.01
2017-10-11T05:10:43.132Z,14.18
2017-10-11T05:13:10.673Z,14.11
2017-10-11T05:15:38.262Z,14.04
2017-10-11T05:18:05.840Z,13.98
2017-10-11T05:20:33.355Z,14.02
2017-10-11T05:23:00.812Z,14.05
2017-10-11T05:25:28.331Z,13.97
2017-10-11T05:27:55.796Z,13.90
2017-10-11T05:30:23.311Z,13.84
2017-10-11T05:32:50.767Z,13.75
2017-10-11T05:35:18.297Z,13.71
2017-10-11T05:37:45.918Z,13.73
2017-10-11T05:40:13.404Z,13.73
2017-10-11T05:42:41.002Z,13.78
2017-10-11T05:45:08.473Z,13.58
2017-10-11T05:47:35.963Z,13.28
2017-10-11T05:50:03.561Z,13.49
2017-10-11T05:52:31.072Z,13.66
2017-10-11T05:54:58.639Z,13.87
2017-10-11T05:57:26.455Z,13.92
2017-10-11T05:59:53.945Z,14.03
2017-10-11T06:02:21.829Z,14.06
2017-10-11T06:04:49.336Z,14.02
2017-10-11T06:07:16.978Z,14.01
2017-10-11T06:09:44.504Z,14.03
2017-10-11T06:12:12.035Z,14.08
2017-10-11T06:14:39.566Z,14.18
2017-10-11T06:17:07.253Z,14.18
2017-10-11T06:19:34.952Z,14.17
2017-10-11T06:22:02.489Z,14.27
2017-10-11T06:24:29.989Z,14.31
2017-10-11T06:26:57.464Z,14.39
2017-10-11T06:29:25.232Z,14.48
2017-10-11T06:31:52.742Z,14.61
2017-10-11T06:34:20.217Z,14.65
2017-10-11T06:36:47.725Z,14.72
2017-10-11T06:39:15.276Z,14.55
2017-10-11T06:41:42.931Z,14.77
2017-10-11T06:44:10.471Z,14.73
2017-10-11T06:46:38.054Z,14.82
2017-10-11T06:49:05.894Z,14.73
2017-10-11T06:51:33.371Z,14.96
2017-10-11T06:54:00.912Z,15.08
2017-10-11T06:56:28.425Z,15.22
2017-10-11T06:58:55.949Z,15.33
2017-10-11T07:01:23.472Z,15.45
2017-10-11T07:03:51.163Z,15.40
2017-10-11T07:06:18.672Z,15.54
2017-10-11T07:08:46.218Z,16.35
2017-10-11T07:11:13.830Z,17.08
2017-10-11T07:13:41.332Z,17.96
2017-10-11T07:16:08.868Z,19.64
2017-10-11T07:18:36.384Z,19.39
2017-10-11T07:21:03.917Z,18.83
2017-10-11T07:23:31.454Z,19.99
2017-10-11T07:25:58.953Z,19.51
2017-10-11T07:28:26.444Z,18.62
2017-10-11T07:30:53.958Z,18.18
2017-10-11T07:33:21.484Z,18.26
2017-10-11T07:35:49.004Z,20.17
2017-10-11T07:38:16.803Z,19.94
2017-10-11T07:40:44.316Z,19.95
2017-10-11T07:43:11.850Z,21.66
2017-10-11T07:45:40.308Z,22.47
2017-10-11T07:48:08.187Z,21.77
2017-10-11T07:50:35.678Z,21.16
2017-10-11T07:53:03.188Z,20.38
2017-10-11T07:55:30.716Z,20.19
2017-10-11T07:57:58.221Z,20.97
2017-10-11T08:00:25.897Z,22.03
2017-10-11T08:02:53.373Z,24.65
2017-10-11T08:05:21.003Z,24.12
2017-10-11T08:07:48.585Z,24.41
2017-10-11T08:10:16.145Z,26.12
2017-10-11T08:12:43.858Z,25.23
2017-10-11T08:15:11.370Z,24.60
2017-10-11T08:17:38.908Z,23.44
2017-10-11T08:20:06.429Z,22.95
2017-10-11T08:22:33.963Z,21.94
2017-10-11T08:25:01.601Z,20.54
2017-10-11T08:27:29.122Z,20.42
2017-10-11T08:29:56.952Z,22.25
2017-10-11T08:32:24.574Z,23.68
2017-10-11T08:34:52.138Z,24.25
2017-10-11T08:37:19.657Z,23.90
2017-10-11T08:39:47.194Z,23.50
2017-10-11T08:42:14.787Z,22.80
2017-10-11T08:44:42.388Z,22.16
2017-10-11T08:47:09.940Z,22.81
2017-10-11T08:49:37.482Z,24.51
2017-10-11T08:52:04.972Z,24.83
2017-10-11T08:54:32.490Z,25.69
2017-10-11T08:57:00.004Z,26.04
2017-10-11T08:59:27.488Z,26.44
2017-10-11T09:01:55.003Z,27.76
2017-10-11T09:04:22.538Z,27.50
2017-10-11T09:06:50.061Z,27.87
2017-10-11T09:09:17.619Z,29.53
2017-10-11T09:11:45.139Z,28.85
2017-10-11T09:14:12.702Z,29.86
2017-10-11T09:16:40.264Z,28.75
2017-10-11T09:19:07.781Z,29.01
2017-10-11T09:21:35.304Z,29.73
2017-10-11T09:24:02.874Z,30.79
2017-10-11T09:26:30.433Z,30.54
2017-10-11T09:28:58.046Z,28.89
2017-10-11T09:31:25.628Z,27.84
2017-10-11T09:33:53.274Z,27.26
2017-10-11T09:36:20.820Z,27.92
2017-10-11T09:38:48.401Z,26.02
2017-10-11T09:41:15.954Z,25.65
2017-10-11T09:43:43.505Z,26.22
2017-10-11T09:46:11.066Z,25.83
2017-10-11T09:48:38.633Z,25.11
2017-10-11T09:51:06.128Z,23.33
2017-10-11T09:53:33.936Z,22.79
2017-10-11T09:56:01.500Z,22.64
2017-10-11T09:58:29.015Z,22.82
2017-10-11T10:00:56.510Z,22.27
2017-10-11T10:03:24.114Z,21.94
2017-10-11T10:05:51.645Z,21.74
2017-10-11T10:08:19.269Z,21.37
2017-10-11T10:10:46.843Z,20.73
2017-10-11T10:13:14.383Z,23.03
2017-10-11T10:15:42.277Z,24.16
2017-10-11T10:18:10.012Z,25.03
2017-10-11T10:20:37.616Z,24.15
2017-10-11T10:23:06.108Z,22.83
2017-10-11T10:25:33.665Z,23.47
2017-10-11T10:28:01.161Z,22.11
2017-10-11T10:30:28.841Z,21.80
2017-10-11T10:32:56.330Z,21.81
2017-10-11T10:35:24.087Z,21.95
2017-10-11T10:37:51.690Z,21.73
2017-10-11T10:40:19.210Z,21.77
2017-10-11T10:42:46.746Z,21.22
2017-10-11T10:45:14.264Z,21.39
2017-10-11T10:47:42.594Z,21.34
2017-10-11T10:50:10.102Z,21.69
2017-10-11T10:52:37.674Z,22.15
2017-10-11T10:55:05.233Z,21.71
2017-10-11T10:57:32.732Z,21.42
2017-10-11T11:00:00.289Z,21.35
2017-10-11T11:02:27.845Z,21.31
2017-10-11T11:04:55.418Z,21.61
2017-10-11T11:07:22.896Z,21.89
2017-10-11T11:09:50.421Z,22.15
2017-10-11T11:12:17.992Z,21.82
2017-10-11T11:14:45.508Z,21.70
2017-10-11T11:17:13.166Z,23.48
2017-10-11T11:19:40.688Z,25.49
2017-10-11T11:22:08.340Z,24.53
2017-10-11T11:24:35.875Z,24.41
2017-10-11T11:27:03.524Z,24.15
2017-10-11T11:29:31.056Z,24.78
2017-10-11T11:31:58.602Z,27.40
2017-10-11T11:34:26.216Z,29.30
2017-10-11T11:36:53.801Z,30.68
2017-10-11T11:39:21.682Z,30.31
2017-10-11T11:41:49.209Z,28.93
2017-10-11T11:44:16.769Z,30.07
2017-10-11T11:46:44.341Z,29.17
2017-10-11T11:49:11.848Z,29.24
2017-10-11T11:51:39.433Z,29.10
2017-10-11T11:54:08.586Z,29.79
2017-10-11T11:56:37.124Z,31.42
2017-10-11T11:59:04.703Z,31.81
2017-10-11T12:01:32.239Z,32.07
2017-10-11T12:03:59.731Z,31.61
2017-10-11T12:06:27.273Z,30.91
2017-10-11T12:08:54.801Z,31.67
2017-10-11T12:11:22.553Z,32.43
2017-10-11T12:13:50.078Z,31.26
2017-10-11T12:16:17.618Z,29.39
2017-10-11T12:18:45.502Z,28.51
2017-10-11T12:21:13.005Z,29.56
2017-10-11T12:23:40.731Z,28.41
2017-10-11T12:26:08.465Z,27.83
2017-10-11T12:28:35.958Z,29.32
2017-10-11T12:31:03.724Z,29.94
2017-10-11T12:33:31.218Z,30.32
2017-10-11T12:35:58.773Z,29.71
2017-10-11T12:38:26.490Z,28.74
2017-10-11T12:40:54.048Z,27.76
2017-10-11T12:43:21.905Z,26.91
2017-10-11T12:45:49.422Z,27.48
2017-10-11T12:48:17.461Z,27.45
2017-10-11T12:50:45.007Z,27.26
2017-10-11T12:53:12.511Z,26.63
2017-10-11T12:55:40.055Z,26.33
2017-10-11T12:58:07.562Z,26.88
2017-10-11T13:00:35.082Z,26.77
2017-10-11T13:03:02.604Z,26.65
2017-10-11T13:05:30.158Z,26.64
2017-10-11T13:07:57.710Z,26.34
2017-10-11T13:10:25.276Z,25.50
2017-10-11T13:12:52.778Z,24.84
2017-10-11T13:15:20.288Z,25.16
2017-10-11T13:17:47.932Z,25.01
2017-10-11T13:20:15.484Z,24.52
2017-10-11T13:22:43.069Z,25.30
2017-10-11T13:25:10.689Z,25.50
2017-10-11T13:27:38.244Z,25.71
2017-10-11T13:30:05.774Z,26.12
2017-10-11T13:32:33.392Z,26.16
2017-10-11T13:35:00.878Z,25.73
2017-10-11T13:37:28.355Z,26.41
2017-10-11T13:39:55.921Z,26.87
2017-10-11T13:42:27.492Z,26.97
2017-10-11T13:44:54.990Z,27.56
2017-10-11T13:47:22.501Z,28.26
2017-10-11T13:49:50.006Z,27.93
2017-10-11T13:52:17.552Z,27.03
2017-10-11T13:54:45.443Z,26.28
2017-10-11T13:57:13.362Z,25.50
2017-10-11T13:59:40.919Z,25.55
2017-10-11T14:02:08.619Z,26.24
2017-10-11T14:04:36.153Z,26.77
2017-10-11T14:07:03.712Z,26.19
2017-10-11T14:09:31.410Z,25.58
2017-10-11T14:11:58.944Z,26.08
2017-10-11T14:14:26.584Z,26.16
2017-10-11T14:16:54.133Z,24.62
2017-10-11T14:19:21.742Z,24.34
2017-10-11T14:21:49.273Z,24.30
2017-10-11T14:24:16.857Z,24.15
2017-10-11T14:26:44.370Z,23.73
2017-10-11T14:29:11.870Z,24.22
2017-10-11T14:31:40.022Z,24.49
2017-10-11T14:34:07.633Z,24.53
2017-10-11T14:36:35.157Z,24.51
2017-10-11T14:39:02.658Z,24.17
2017-10-11T14:41:30.185Z,24.02
2017-10-11T14:43:57.801Z,23.91
2017-10-11T14:46:25.339Z,23.76
2017-10-11T14:48:52.911Z,23.86
2017-10-11T14:51:20.518Z,24.10
2017-10-11T14:53:48.098Z,24.42
2017-10-11T14:56:15.821Z,24.79
2017-10-11T14:58:43.366Z,24.38
2017-10-11T15:01:10.929Z,24.48
2017-10-11T15:03:38.454Z,24.01
2017-10-11T15:06:06.000Z,23.75
2017-10-11T15:08:33.580Z,22.97
2017-10-11T15:11:01.124Z,23.46
2017-10-11T15:13:28.759Z,22.93
2017-10-11T15:15:56.311Z,22.61
2017-10-11T15:18:23.856Z,22.39
2017-10-11T15:20:51.437Z,22.23
2017-10-11T15:23:18.985Z,22.15
2017-10-11T15:25:46.575Z,22.05
2017-10-11T15:28:14.139Z,22.16
2017-10-11T15:30:41.636Z,22.25
2017-10-11T15:33:09.215Z,22.09
2017-10-11T15:35:37.216Z,22.01
2017-10-11T15:38:05.345Z,22.03
2017-10-11T15:40:33.182Z,21.90
2017-10-11T15:43:00.856Z,21.80
2017-10-11T15:45:28.738Z,22.01
2017-10-11T15:47:56.303Z,22.03
2017-10-11T15:50:24.097Z,21.88
2017-10-11T15:52:51.756Z,21.86
2017-10-11T15:55:19.697Z,21.78
2017-10-11T15:57:47.346Z,21.77
2017-10-11T16:00:14.992Z,21.74
2017-10-11T16:02:42.869Z,21.62
2017-10-11T16:05:10.398Z,21.49
2017-10-11T16:24:52.920Z,20.78
2017-10-11T16:27:20.513Z,20.81
2017-10-11T16:29:48.095Z,20.40
2017-10-11T16:32:16.824Z,20.81
2017-10-11T16:34:44.405Z,20.67
2017-10-11T16:37:11.996Z,20.61
2017-10-11T16:39:39.576Z,20.61
2017-10-11T16:42:07.188Z,20.65
2017-10-11T16:44:34.704Z,20.53
2017-10-11T16:47:02.295Z,20.50
2017-10-11T16:49:29.763Z,20.49
2017-10-11T16:51:57.278Z,20.38
2017-10-11T16:54:24.749Z,20.25
2017-10-11T16:56:53.018Z,20.15
2017-10-11T16:59:21.055Z,20.07
2017-10-11T17:01:49.673Z,20.01
2017-10-11T17:04:18.643Z,20.02
2017-10-11T17:06:46.548Z,20.11
2017-10-11T17:09:14.575Z,19.90
2017-10-11T17:11:42.205Z,19.86
2017-10-11T17:14:10.465Z,19.82
2017-10-11T17:16:38.035Z,19.68
2017-10-11T17:19:06.536Z,19.50
2017-10-11T17:21:34.152Z,19.62
2017-10-11T17:24:01.938Z,19.62
2017-10-11T17:26:30.329Z,19.61
2017-10-11T17:28:58.777Z,19.43
2017-10-11T17:31:26.903Z,19.32
2017-10-11T17:33:55.167Z,19.32
2017-10-11T17:36:23.100Z,18.59
2017-10-11T17:38:51.069Z,19.21
2017-10-11T17:41:19.605Z,19.20
2017-10-11T17:43:48.131Z,18.69
2017-10-11T17:46:15.766Z,18.79
2017-10-11T17:48:43.345Z,18.87
2017-10-11T17:51:11.378Z,18.83
2017-10-11T17:53:39.675Z,18.62
2017-10-11T17:56:07.221Z,18.55
2017-10-11T17:58:34.823Z,18.55
2017-10-11T18:01:02.373Z,18.47
2017-10-11T18:03:30.193Z,18.41
2017-10-11T18:05:58.029Z,18.29
2017-10-11T18:08:25.859Z,18.23
2017-10-11T18:10:53.487Z,18.10
2017-10-11T18:13:22.091Z,17.98
2017-10-11T18:15:49.837Z,17.89
2017-10-11T18:18:17.587Z,17.90
2017-10-11T18:20:46.131Z,17.76
2017-10-11T18:23:13.823Z,17.78
2017-10-11T18:25:41.482Z,17.70
2017-10-11T18:28:09.142Z,17.58
2017-10-11T18:30:36.716Z,17.51
2017-10-11T18:33:04.438Z,17.47
2017-10-11T18:35:32.253Z,17.43
2017-10-11T18:38:01.093Z,17.30
2017-10-11T18:40:29.707Z,17.36
2017-10-11T18:42:57.392Z,17.32
2017-10-11T18:45:26.798Z,17.36
2017-10-11T18:47:54.398Z,17.34
2017-10-11T18:50:22.769Z,17.18
2017-10-11T18:52:52.988Z,17.08
2017-10-11T18:55:20.868Z,17.08
2017-10-11T18:57:50.979Z,17.04
2017-10-11T19:00:20.453Z,17.10
2017-10-11T19:02:48.011Z,16.94
2017-10-11T19:12:59.771Z,16.09
2017-10-11T19:15:29.230Z,15.98
2017-10-11T19:17:59.339Z,16.04
2017-10-11T19:20:29.542Z,16.14
2017-10-11T19:23:12.863Z,16.20
2017-10-11T19:25:46.595Z,16.11
2017-10-11T19:28:46.311Z,16.06
2017-10-11T19:31:14.530Z,16.19
2017-10-11T19:33:42.200Z,16.24
2017-10-11T19:36:11.553Z,15.96
2017-10-11T19:38:42.137Z,16.03
2017-10-11T19:41:25.850Z,15.92
2017-10-11T19:46:34.832Z,15.86
2017-10-11T19:49:02.685Z,15.96
2017-10-11T19:54:11.374Z,15.74
2017-10-11T19:56:40.167Z,15.58
2017-10-11T19:59:08.222Z,15.13
2017-10-11T20:01:35.905Z,15.33
2017-10-11T20:04:04.765Z,15.55
2017-10-11T20:06:33.494Z,15.49
2017-10-11T20:09:02.181Z,15.45
2017-10-11T20:11:29.877Z,15.57
2017-10-11T20:13:59.931Z,15.42
2017-10-11T20:16:28.642Z,15.45
2017-10-11T20:18:56.487Z,15.57
2017-10-11T20:37:19.161Z,14.74
2017-10-11T20:39:46.863Z,14.78
2017-10-11T20:42:29.297Z,14.74
2017-10-11T20:44:57.022Z,14.77
2017-10-11T20:47:24.616Z,14.78
2017-10-11T20:49:53.336Z,14.82
2017-10-11T22:00:58.402Z,13.09
2017-10-11T22:03:25.949Z,13.08
